createdAt,value
2018-06-28T00:00:43.849Z,52.20
2018-06-28T00:03:12.808Z,51.70
2018-06-28T00:05:41.742Z,52.60
2018-06-28T00:08:10.717Z,53.40
2018-06-28T00:10:39.649Z,53.80
2018-06-28T00:13:08.641Z,53.90
2018-06-28T00:15:37.676Z,53.60
2018-06-28T00:18:06.790Z,53.40
2018-06-28T00:20:35.777Z,54.70
2018-06-28T00:23:04.762Z,55.30
2018-06-28T00:25:33.698Z,54.90
2018-06-28T00:28:02.615Z,54.20
2018-06-28T00:30:31.558Z,54.10
2018-06-28T00:33:00.529Z,54.00
2018-06-28T00:35:29.480Z,54.40
2018-06-28T00:37:58.426Z,55.50
2018-06-28T00:40:27.397Z,55.60
2018-06-28T00:42:56.335Z,55.20
2018-06-28T00:45:25.285Z,55.30
2018-06-28T00:47:54.307Z,55.00
2018-06-28T00:50:23.319Z,55.00
2018-06-28T00:52:52.327Z,55.10
2018-06-28T00:55:21.281Z,55.30
2018-06-28T00:57:50.273Z,55.50
2018-06-28T01:00:19.273Z,56.00
2018-06-28T01:02:48.221Z,56.20
2018-06-28T01:05:17.293Z,56.50
2018-06-28T01:07:46.262Z,57.00
2018-06-28T01:10:15.284Z,57.50
2018-06-28T01:12:44.298Z,58.30
2018-06-28T01:15:13.305Z,58.60
2018-06-28T01:17:42.343Z,58.50
2018-06-28T01:20:11.333Z,58.60
2018-06-28T01:22:40.378Z,58.60
2018-06-28T01:25:09.343Z,58.40
2018-06-28T01:27:38.338Z,58.40
2018-06-28T01:30:07.921Z,58.40
2018-06-28T01:32:36.917Z,58.60
2018-06-28T01:35:05.937Z,58.70
2018-06-28T01:37:34.930Z,58.90
2018-06-28T01:40:03.990Z,58.90
2018-06-28T01:42:47.401Z,58.90
2018-06-28T01:45:16.414Z,59.50
2018-06-28T01:47:45.385Z,60.60
2018-06-28T01:50:14.425Z,61.30
2018-06-28T01:52:43.438Z,61.50
2018-06-28T01:55:12.401Z,61.90
2018-06-28T01:57:41.363Z,62.40
2018-06-28T02:00:10.318Z,62.50
2018-06-28T02:02:39.295Z,62.40
2018-06-28T02:05:08.233Z,62.10
2018-06-28T02:07:37.175Z,62.20
2018-06-28T02:10:06.378Z,62.20
2018-06-28T02:12:35.363Z,62.10
2018-06-28T02:15:05.269Z,62.20
2018-06-28T02:17:34.220Z,62.30
2018-06-28T02:20:03.325Z,62.70
2018-06-28T02:22:32.283Z,63.50
2018-06-28T02:25:01.245Z,64.20
2018-06-28T02:27:30.238Z,65.10
2018-06-28T02:29:59.221Z,65.70
2018-06-28T02:32:28.157Z,65.60
2018-06-28T02:34:57.088Z,66.30
2018-06-28T02:37:26.078Z,66.60
2018-06-28T02:39:55.009Z,66.70
2018-06-28T02:42:24.000Z,67.40
2018-06-28T02:44:53.001Z,67.80
2018-06-28T02:47:21.960Z,67.80
2018-06-28T02:49:51.257Z,68.20
2018-06-28T03:02:22.433Z,69.00
2018-06-28T03:04:51.417Z,69.40
2018-06-28T03:09:49.066Z,69.90
2018-06-28T03:12:18.414Z,69.60
2018-06-28T03:14:47.529Z,69.50
2018-06-28T03:17:16.646Z,69.60
2018-06-28T03:19:45.608Z,69.60
2018-06-28T03:22:17.173Z,69.80
2018-06-28T03:24:46.154Z,69.50
2018-06-28T03:27:15.154Z,69.90
2018-06-28T03:29:44.093Z,70.00
2018-06-28T03:32:13.250Z,69.80
2018-06-28T03:34:42.193Z,70.00
2018-06-28T03:37:11.146Z,70.10
2018-06-28T03:39:40.129Z,70.10
2018-06-28T03:42:10.062Z,69.90
2018-06-28T03:44:39.165Z,69.80
2018-06-28T03:47:08.195Z,69.80
2018-06-28T03:52:05.754Z,69.60
2018-06-28T03:54:34.713Z,69.80
2018-06-28T03:57:04.316Z,69.80
2018-06-28T03:59:33.269Z,69.60
2018-06-28T04:02:02.294Z,69.50
2018-06-28T04:04:32.130Z,69.60
2018-06-28T04:07:01.106Z,70.00
2018-06-28T04:09:30.101Z,70.20
2018-06-28T04:11:59.084Z,70.40
2018-06-28T04:14:28.066Z,70.60
2018-06-28T04:16:57.044Z,70.80
2018-06-28T04:19:26.033Z,71.10
2018-06-28T04:21:54.982Z,71.20
2018-06-28T04:24:23.952Z,71.10
2018-06-28T04:26:52.905Z,72.20
2018-06-28T04:29:22.273Z,70.90
2018-06-28T04:32:05.501Z,70.40
2018-06-28T04:34:34.433Z,71.30
2018-06-28T04:37:03.334Z,71.80
2018-06-28T04:39:32.238Z,71.80
2018-06-28T04:42:01.154Z,71.80
2018-06-28T04:44:30.065Z,71.40
2018-06-28T04:46:59.009Z,72.20
2018-06-28T04:49:27.926Z,71.20
2018-06-28T04:51:56.839Z,71.40
2018-06-28T04:54:25.758Z,71.20
2018-06-28T04:56:54.718Z,70.90
2018-06-28T04:59:23.638Z,70.30
2018-06-28T05:01:52.569Z,70.20
2018-06-28T05:04:21.541Z,69.70
2018-06-28T05:06:50.465Z,69.70
2018-06-28T05:09:19.381Z,70.20
2018-06-28T05:11:48.321Z,70.20
2018-06-28T05:14:21.131Z,70.70
2018-06-28T05:16:51.432Z,69.80
2018-06-28T05:19:28.425Z,70.00
2018-06-28T05:22:00.133Z,70.40
2018-06-28T05:27:29.084Z,70.70
2018-06-28T05:30:00.278Z,70.90
2018-06-28T05:32:34.418Z,70.90
2018-06-28T05:35:07.813Z,70.80
2018-06-28T05:37:49.982Z,70.50
2018-06-28T05:40:25.223Z,68.10
2018-06-28T05:42:58.001Z,66.80
2018-06-28T05:48:20.673Z,66.90
2018-06-28T05:50:52.782Z,67.20
2018-06-28T05:53:24.341Z,67.30
2018-06-28T05:55:56.227Z,66.90
2018-06-28T05:58:28.039Z,66.20
2018-06-28T06:01:04.133Z,65.90
2018-06-28T06:03:33.184Z,62.50
2018-06-28T06:06:02.259Z,61.60
2018-06-28T06:08:31.173Z,60.00
2018-06-28T06:11:00.088Z,57.70
2018-06-28T06:13:29.043Z,57.30
2018-06-28T06:15:57.998Z,55.40
2018-06-28T06:18:26.937Z,55.10
2018-06-28T06:20:55.987Z,52.50
2018-06-28T06:23:24.954Z,51.70
2018-06-28T06:25:53.943Z,50.00
2018-06-28T06:28:22.882Z,49.20
2018-06-28T06:30:51.915Z,48.70
2018-06-28T06:33:20.855Z,48.30
2018-06-28T06:35:49.767Z,47.20
2018-06-28T06:38:18.724Z,46.80
2018-06-28T06:40:47.661Z,45.80
2018-06-28T06:43:16.646Z,45.30
2018-06-28T06:45:45.553Z,46.10
2018-06-28T06:48:14.509Z,45.20
2018-06-28T06:50:43.443Z,44.10
2018-06-28T06:53:12.386Z,43.40
2018-06-28T06:55:41.394Z,42.90
2018-06-28T06:58:10.329Z,43.70
2018-06-28T07:00:39.233Z,40.00
2018-06-28T07:03:08.216Z,40.00
2018-06-28T07:05:37.133Z,38.80
2018-06-28T07:08:06.179Z,37.00
2018-06-28T07:10:35.090Z,36.50
2018-06-28T07:13:04.010Z,36.60
2018-06-28T07:18:01.387Z,36.30
2018-06-28T07:20:30.423Z,33.40
2018-06-28T07:22:59.368Z,31.40
2018-06-28T07:25:28.349Z,30.90
2018-06-28T07:27:57.371Z,31.90
2018-06-28T07:30:26.317Z,31.60
2018-06-28T07:32:55.320Z,31.60
2018-06-28T07:35:24.301Z,30.40
2018-06-28T07:37:53.262Z,29.10
2018-06-28T07:40:22.218Z,29.40
2018-06-28T07:42:51.606Z,30.00
2018-06-28T07:45:20.563Z,29.40
2018-06-28T07:47:49.502Z,29.90
2018-06-28T07:50:18.451Z,29.60
2018-06-28T07:52:47.418Z,29.10
2018-06-28T07:55:16.385Z,29.40
2018-06-28T07:57:45.419Z,29.70
2018-06-28T08:00:14.357Z,30.00
2018-06-28T08:02:43.354Z,30.00
2018-06-28T08:05:12.309Z,30.20
2018-06-28T08:07:41.313Z,29.90
2018-06-28T08:10:10.349Z,29.20
2018-06-28T08:12:39.282Z,28.30
2018-06-28T08:15:08.234Z,28.50
2018-06-28T08:17:37.185Z,29.40
2018-06-28T08:20:07.113Z,29.40
2018-06-28T08:22:36.090Z,29.30
2018-06-28T08:25:05.544Z,29.50
2018-06-28T08:27:34.817Z,29.40
2018-06-28T08:30:03.943Z,30.00
2018-06-28T08:32:32.899Z,29.90
2018-06-28T08:35:01.846Z,29.60
2018-06-28T08:37:30.832Z,28.70
2018-06-28T08:39:59.798Z,29.30
2018-06-28T08:42:28.744Z,29.30
2018-06-28T08:44:57.681Z,29.10
2018-06-28T08:47:26.622Z,28.70
2018-06-28T08:49:55.689Z,28.60
2018-06-28T08:52:24.662Z,28.20
2018-06-28T08:54:53.647Z,28.30
2018-06-28T08:57:22.597Z,29.40
2018-06-28T08:59:51.584Z,28.70
2018-06-28T09:02:20.666Z,29.50
2018-06-28T09:04:49.592Z,29.40
2018-06-28T09:07:18.574Z,29.30
2018-06-28T09:09:47.518Z,28.80
2018-06-28T09:12:16.465Z,28.90
2018-06-28T09:14:45.434Z,29.60
2018-06-28T09:17:14.375Z,29.70
2018-06-28T09:19:43.306Z,29.40
2018-06-28T09:22:12.308Z,29.10
2018-06-28T09:24:41.252Z,28.50
2018-06-28T09:27:10.228Z,28.90
2018-06-28T09:29:39.265Z,29.60
2018-06-28T09:32:08.218Z,29.10
2018-06-28T09:34:37.109Z,30.50
2018-06-28T09:37:06.320Z,30.20
2018-06-28T09:39:35.285Z,29.60
2018-06-28T09:42:07.346Z,29.20
2018-06-28T09:44:36.351Z,28.90
2018-06-28T09:47:05.468Z,28.30
2018-06-28T09:49:34.498Z,28.30
2018-06-28T09:52:03.470Z,27.90
2018-06-28T09:54:32.418Z,28.40
2018-06-28T09:57:01.489Z,27.70
2018-06-28T09:59:30.490Z,28.10
2018-06-28T10:01:59.509Z,27.20
2018-06-28T10:04:28.474Z,26.50
2018-06-28T10:06:57.460Z,27.80
2018-06-28T10:09:26.749Z,27.80
2018-06-28T10:11:55.697Z,28.30
2018-06-28T10:14:24.672Z,28.10
2018-06-28T10:16:53.646Z,27.30
2018-06-28T10:19:22.676Z,27.20
2018-06-28T10:21:51.750Z,27.40
2018-06-28T10:24:20.687Z,27.10
2018-06-28T10:26:49.634Z,27.10
2018-06-28T10:29:18.557Z,26.60
2018-06-28T10:31:47.495Z,27.30
2018-06-28T10:34:16.442Z,26.30
2018-06-28T10:36:45.402Z,25.70
2018-06-28T10:39:14.350Z,26.20
2018-06-28T10:41:43.289Z,25.90
2018-06-28T10:44:12.254Z,26.00
2018-06-28T10:46:41.199Z,26.00
2018-06-28T10:49:10.217Z,25.90
2018-06-28T10:51:39.254Z,25.40
2018-06-28T10:54:08.269Z,26.00
2018-06-28T10:56:37.241Z,25.50
2018-06-28T10:59:06.225Z,25.00
2018-06-28T11:01:35.233Z,25.10
2018-06-28T11:04:04.265Z,24.80
2018-06-28T11:06:33.266Z,25.60
2018-06-28T11:09:02.334Z,25.00
2018-06-28T11:11:31.297Z,24.40
2018-06-28T11:14:00.264Z,24.40
2018-06-28T11:16:29.235Z,24.80
2018-06-28T11:18:58.247Z,24.80
2018-06-28T11:21:27.413Z,24.20
2018-06-28T11:23:56.674Z,24.30
2018-06-28T11:26:25.642Z,24.00
2018-06-28T11:28:54.647Z,23.90
2018-06-28T11:31:23.611Z,23.90
2018-06-28T11:33:52.558Z,24.90
2018-06-28T11:36:21.593Z,24.20
2018-06-28T11:38:50.825Z,24.70
2018-06-28T11:41:19.809Z,24.10
2018-06-28T11:43:48.785Z,24.10
2018-06-28T11:46:17.761Z,23.40
2018-06-28T11:48:46.772Z,24.00
2018-06-28T11:51:15.769Z,24.00
2018-06-28T11:53:44.724Z,24.10
2018-06-28T11:56:13.657Z,23.80
2018-06-28T11:58:42.618Z,23.60
2018-06-28T12:01:11.606Z,24.50
2018-06-28T12:03:40.585Z,24.60
2018-06-28T12:06:09.553Z,25.90
2018-06-28T12:08:38.518Z,24.70
2018-06-28T12:11:07.488Z,24.50
2018-06-28T12:13:36.462Z,24.90
2018-06-28T12:16:05.486Z,24.60
2018-06-28T12:18:34.486Z,25.10
2018-06-28T12:21:03.423Z,23.50
2018-06-28T12:23:32.441Z,24.20
2018-06-28T12:26:01.465Z,23.70
2018-06-28T12:28:30.454Z,22.30
2018-06-28T12:30:59.453Z,23.00
2018-06-28T12:33:28.429Z,24.20
2018-06-28T12:36:02.398Z,24.20
2018-06-28T12:38:32.327Z,23.40
2018-06-28T12:41:01.367Z,23.90
2018-06-28T12:43:30.912Z,24.20
2018-06-28T12:46:00.615Z,23.70
2018-06-28T12:48:29.565Z,24.50
2018-06-28T12:53:26.990Z,24.20
2018-06-28T12:56:31.584Z,25.00
2018-06-28T12:59:02.558Z,24.10
2018-06-28T13:01:31.937Z,23.90
2018-06-28T13:04:01.038Z,24.10
2018-06-28T13:06:30.021Z,24.80
2018-06-28T13:08:59.933Z,24.30
2018-06-28T13:11:29.041Z,24.80
2018-06-28T13:13:58.493Z,24.80
2018-06-28T13:16:28.361Z,24.10
2018-06-28T13:18:57.375Z,24.30
2018-06-28T13:21:26.417Z,24.60
2018-06-28T13:23:55.371Z,24.30
2018-06-28T13:26:24.290Z,24.10
2018-06-28T13:28:53.290Z,24.50
2018-06-28T13:31:22.335Z,24.60
2018-06-28T13:33:51.327Z,25.00
2018-06-28T13:36:20.244Z,25.80
2018-06-28T13:38:49.162Z,24.90
2018-06-28T13:41:18.309Z,25.00
2018-06-28T13:43:47.076Z,24.70
2018-06-28T13:46:16.039Z,25.00
2018-06-28T13:48:45.011Z,25.40
2018-06-28T13:53:42.420Z,25.00
2018-06-28T13:56:11.369Z,25.40
2018-06-28T14:01:08.769Z,25.40
2018-06-28T14:03:37.690Z,25.90
2018-06-28T14:06:06.637Z,26.30
2018-06-28T14:08:35.569Z,25.70
2018-06-28T14:11:04.608Z,25.10
2018-06-28T14:13:33.670Z,25.90
2018-06-28T14:18:31.136Z,25.10
2018-06-28T14:21:00.076Z,24.90
2018-06-28T14:23:29.022Z,26.20
2018-06-28T14:25:58.009Z,25.60
2018-06-28T14:28:26.939Z,25.40
2018-06-28T14:30:55.859Z,26.50
2018-06-28T14:33:24.785Z,26.10
2018-06-28T14:35:53.751Z,25.80
2018-06-28T14:38:22.679Z,24.70
2018-06-28T14:40:51.618Z,26.20
2018-06-28T14:43:20.551Z,26.80
2018-06-28T14:45:49.477Z,27.50
2018-06-28T14:48:18.407Z,27.60
2018-06-28T14:50:47.366Z,28.50
2018-06-28T14:55:48.975Z,28.60
2018-06-28T14:58:17.981Z,28.10
2018-06-28T15:00:46.941Z,29.20
2018-06-28T15:03:15.896Z,28.40
2018-06-28T15:05:44.908Z,29.00
2018-06-28T15:08:13.877Z,29.00
2018-06-28T15:10:42.853Z,28.60
2018-06-28T15:13:11.801Z,29.20
2018-06-28T15:15:40.761Z,29.30
2018-06-28T15:18:09.712Z,28.90
2018-06-28T15:20:38.685Z,29.60
2018-06-28T15:23:07.922Z,29.50
2018-06-28T15:25:36.882Z,29.80
2018-06-28T15:28:05.906Z,30.60
2018-06-28T15:30:34.844Z,30.30
2018-06-28T15:33:03.833Z,30.60
2018-06-28T15:35:32.853Z,30.90
2018-06-28T15:38:01.842Z,31.20
2018-06-28T15:40:30.766Z,31.10
2018-06-28T15:42:59.701Z,31.50
2018-06-28T15:45:28.650Z,32.00
2018-06-28T15:47:57.619Z,31.30
2018-06-28T15:50:26.550Z,31.10
2018-06-28T15:52:55.505Z,31.20
2018-06-28T15:55:24.772Z,30.70
2018-06-28T15:57:53.717Z,31.30
2018-06-28T16:00:22.678Z,31.60
2018-06-28T16:02:51.624Z,31.90
2018-06-28T16:05:20.596Z,32.30
2018-06-28T16:07:49.550Z,32.60
2018-06-28T16:10:18.456Z,32.90
2018-06-28T16:12:47.378Z,32.70
2018-06-28T16:15:16.389Z,32.60
2018-06-28T16:17:45.346Z,32.20
2018-06-28T16:20:14.318Z,32.40
2018-06-28T16:22:43.481Z,32.40
2018-06-28T16:25:12.538Z,32.90
2018-06-28T16:27:41.480Z,32.90
2018-06-28T16:30:10.443Z,33.70
2018-06-28T16:32:39.390Z,33.40
2018-06-28T16:35:08.354Z,33.90
2018-06-28T16:37:37.271Z,34.20
2018-06-28T16:40:06.205Z,35.20
2018-06-28T16:42:35.189Z,35.70
2018-06-28T16:45:04.307Z,36.20
2018-06-28T16:47:33.244Z,36.50
2018-06-28T16:50:02.187Z,35.70
2018-06-28T16:52:31.126Z,36.00
2018-06-28T16:55:00.105Z,34.90
2018-06-28T16:59:57.550Z,35.00
2018-06-28T17:02:26.514Z,34.90
2018-06-28T17:04:55.454Z,34.80
2018-06-28T17:07:24.421Z,35.20
2018-06-28T17:09:53.379Z,35.00
2018-06-28T17:12:22.341Z,35.60
2018-06-28T17:14:51.321Z,35.80
2018-06-28T17:17:20.375Z,35.70
2018-06-28T17:19:49.322Z,35.80
2018-06-28T17:22:18.277Z,36.00
2018-06-28T17:24:47.275Z,36.40
2018-06-28T17:27:16.341Z,37.20
2018-06-28T17:29:45.357Z,36.50
2018-06-28T17:32:14.453Z,37.50
2018-06-28T17:34:43.474Z,37.50
2018-06-28T17:37:12.481Z,37.90
2018-06-28T17:39:41.490Z,37.60
2018-06-28T17:42:10.474Z,36.50
2018-06-28T17:44:39.454Z,36.30
2018-06-28T17:47:08.463Z,36.80
2018-06-28T17:49:37.447Z,38.00
2018-06-28T17:52:06.420Z,38.60
2018-06-28T17:54:35.384Z,37.90
2018-06-28T17:59:32.854Z,38.00
2018-06-28T18:02:01.777Z,37.20
2018-06-28T18:05:09.447Z,38.30
2018-06-28T18:07:38.690Z,38.60
2018-06-28T18:10:07.632Z,39.00
2018-06-28T18:12:36.570Z,38.80
2018-06-28T18:15:06.261Z,39.00
2018-06-28T18:17:35.212Z,39.60
2018-06-28T18:20:04.312Z,39.70
2018-06-28T18:22:33.284Z,40.20
2018-06-28T18:25:02.669Z,40.20
2018-06-28T18:27:31.661Z,40.30
2018-06-28T18:30:00.581Z,40.30
2018-06-28T18:32:29.537Z,40.60
2018-06-28T18:34:59.926Z,41.00
2018-06-28T18:37:29.301Z,41.20
2018-06-28T18:39:58.382Z,41.60
2018-06-28T18:42:27.385Z,42.00
2018-06-28T18:47:31.718Z,42.80
2018-06-28T18:50:01.054Z,43.10
2018-06-28T18:52:30.492Z,43.30
2018-06-28T18:54:59.610Z,43.60
2018-06-28T18:57:28.557Z,44.20
2018-06-28T18:59:57.512Z,44.50
2018-06-28T19:02:28.108Z,44.40
2018-06-28T19:04:57.108Z,44.80
2018-06-28T19:07:26.037Z,44.90
2018-06-28T19:10:00.305Z,46.20
2018-06-28T19:12:29.297Z,47.00
2018-06-28T19:15:03.432Z,47.20
2018-06-28T19:17:32.433Z,47.70
2018-06-28T19:20:01.460Z,47.90
2018-06-28T19:22:35.745Z,47.20
2018-06-28T19:25:04.914Z,47.60
2018-06-28T19:27:33.977Z,48.20
2018-06-28T19:30:08.337Z,48.40
2018-06-28T19:32:37.294Z,48.30
2018-06-28T19:35:06.281Z,48.90
2018-06-28T19:37:41.329Z,49.50
2018-06-28T19:40:15.734Z,49.80
2018-06-28T19:42:49.986Z,51.20
2018-06-28T19:45:19.174Z,51.90
2018-06-28T19:47:48.110Z,52.70
2018-06-28T19:50:22.322Z,53.40
2018-06-28T19:52:52.456Z,54.10
2018-06-28T19:55:21.537Z,54.40
2018-06-28T19:57:50.501Z,55.10
2018-06-28T20:00:24.677Z,55.60
2018-06-28T20:05:04.045Z,56.10
2018-06-28T20:10:01.525Z,58.00
2018-06-28T20:12:35.726Z,58.30
2018-06-28T20:15:10.121Z,58.70
2018-06-28T20:17:54.206Z,59.00
2018-06-28T20:20:26.282Z,59.20
2018-06-28T20:22:58.697Z,59.70
2018-06-28T20:25:27.845Z,60.10
2018-06-28T20:28:02.282Z,60.40
2018-06-28T20:30:36.677Z,61.10
2018-06-28T20:33:10.946Z,61.60
2018-06-28T20:35:39.862Z,62.30
2018-06-28T20:38:08.879Z,62.60
2018-06-28T20:40:37.842Z,62.70
2018-06-28T20:43:06.781Z,63.00
2018-06-28T20:45:35.817Z,62.90
2018-06-28T20:48:04.821Z,63.20
2018-06-28T20:50:33.817Z,64.00
2018-06-28T20:53:02.776Z,64.50
2018-06-28T20:55:31.726Z,64.60
2018-06-28T20:58:00.858Z,64.90
2018-06-28T21:00:30.428Z,64.90
2018-06-28T21:07:57.397Z,64.80
2018-06-28T21:10:26.366Z,64.60
2018-06-28T21:12:55.463Z,65.00
2018-06-28T21:15:24.425Z,65.90
2018-06-28T21:17:53.428Z,66.50
2018-06-28T21:20:22.325Z,66.50
2018-06-28T21:22:52.225Z,67.20
2018-06-28T21:25:21.135Z,68.40
2018-06-28T21:27:50.096Z,67.70
2018-06-28T21:30:19.030Z,67.70
2018-06-28T21:32:48.030Z,67.70
2018-06-28T21:35:16.977Z,67.70
2018-06-28T21:37:45.906Z,67.80
2018-06-28T21:40:14.841Z,68.10
2018-06-28T21:42:43.761Z,68.60
2018-06-28T21:45:12.725Z,68.80
2018-06-28T21:47:41.644Z,69.00
2018-06-28T21:50:10.581Z,69.00
2018-06-28T21:55:08.116Z,69.50
2018-06-28T21:57:37.037Z,69.70
2018-06-28T22:00:08.145Z,70.30
2018-06-28T22:02:37.062Z,70.30
2018-06-28T22:05:06.073Z,70.90
2018-06-28T22:07:34.993Z,70.80
2018-06-28T22:10:04.119Z,71.00
2018-06-28T22:12:33.030Z,71.10
2018-06-28T22:15:01.941Z,71.00
2018-06-28T22:17:30.883Z,70.10
2018-06-28T22:19:59.817Z,69.10
2018-06-28T22:22:28.717Z,69.70
2018-06-28T22:24:57.662Z,69.70
2018-06-28T22:27:26.574Z,70.10
2018-06-28T22:29:55.493Z,70.50
2018-06-28T22:32:31.889Z,70.50
2018-06-28T22:35:00.985Z,70.90
2018-06-28T22:37:29.949Z,71.40
2018-06-28T22:39:58.894Z,71.40
2018-06-28T22:42:27.854Z,71.70
2018-06-28T22:44:56.834Z,71.70
2018-06-28T22:47:25.823Z,72.20
2018-06-28T22:49:54.814Z,72.60
2018-06-28T22:52:23.786Z,73.00
2018-06-28T22:54:52.765Z,73.30
2018-06-28T22:57:22.077Z,73.40
2018-06-28T22:59:51.027Z,73.40
2018-06-28T23:02:20.033Z,73.70
2018-06-28T23:04:49.048Z,73.80
2018-06-28T23:07:18.014Z,73.90
2018-06-28T23:09:46.986Z,74.00
2018-06-28T23:12:15.961Z,74.10
2018-06-28T23:14:44.923Z,74.00
2018-06-28T23:17:13.865Z,73.30
2018-06-28T23:19:42.810Z,73.60
2018-06-28T23:22:23.451Z,73.80
2018-06-28T23:24:52.447Z,74.20
2018-06-28T23:27:21.637Z,74.50
2018-06-28T23:29:50.662Z,74.80
2018-06-28T23:32:19.718Z,74.10
2018-06-28T23:34:48.706Z,73.30
2018-06-28T23:37:17.658Z,73.60
2018-06-28T23:39:46.724Z,73.80
2018-06-28T23:42:15.689Z,74.10
2018-06-28T23:44:44.678Z,74.40
2018-06-28T23:47:13.781Z,74.50
2018-06-28T23:49:42.930Z,74.70
2018-06-28T23:52:11.890Z,74.90
2018-06-28T23:54:40.976Z,75.10
2018-06-28T23:57:10.002Z,75.40
2018-06-28T23:59:38.971Z,75.40
